sensor_id;sensor_type;location;lat;lon;timestamp;P1;durP1;ratioP1;P2;durP2;ratioP2
29402;SDS011;16382;59.942;30.472;2023-02-11T00:00:54;5.18;;;1.00;;
29402;SDS011;16382;59.942;30.472;2023-02-11T00:03:21;7.68;;;1.77;;
29402;SDS011;16382;59.942;30.472;2023-02-11T00:05:55;3.45;;;0.93;;
29402;SDS011;16382;59.942;30.472;2023-02-11T00:08:24;8.48;;;2.13;;
29402;SDS011;16382;59.942;30.472;2023-02-11T00:10:51;10.75;;;1.30;;
29402;SDS011;16382;59.942;30.472;2023-02-11T00:13:18;4.93;;;1.20;;
29402;SDS011;16382;59.942;30.472;2023-02-11T00:15:46;6.97;;;1.70;;
29402;SDS011;16382;59.942;30.472;2023-02-11T00:18:14;8.55;;;2.13;;
29402;SDS011;16382;59.942;30.472;2023-02-11T00:20:42;8.10;;;1.27;;
29402;SDS011;16382;59.942;30.472;2023-02-11T00:23:09;4.13;;;1.63;;
29402;SDS011;16382;59.942;30.472;2023-02-11T00:25:37;5.63;;;1.63;;
29402;SDS011;16382;59.942;30.472;2023-02-11T00:28:05;6.45;;;1.70;;
29402;SDS011;16382;59.942;30.472;2023-02-11T00:30:32;6.00;;;1.67;;
29402;SDS011;16382;59.942;30.472;2023-02-11T00:32:59;10.63;;;1.55;;
29402;SDS011;16382;59.942;30.472;2023-02-11T00:35:28;3.45;;;1.15;;
29402;SDS011;16382;59.942;30.472;2023-02-11T00:37:55;6.43;;;1.30;;
29402;SDS011;16382;59.942;30.472;2023-02-11T00:40:22;5.07;;;1.13;;
29402;SDS011;16382;59.942;30.472;2023-02-11T00:42:49;7.60;;;1.30;;
29402;SDS011;16382;59.942;30.472;2023-02-11T00:45:16;10.45;;;1.27;;
29402;SDS011;16382;59.942;30.472;2023-02-11T00:47:45;4.32;;;1.30;;
29402;SDS011;16382;59.942;30.472;2023-02-11T00:50:12;6.63;;;1.08;;
29402;SDS011;16382;59.942;30.472;2023-02-11T00:52:41;5.85;;;1.67;;
29402;SDS011;16382;59.942;30.472;2023-02-11T00:55:08;9.18;;;1.63;;
29402;SDS011;16382;59.942;30.472;2023-02-11T00:57:35;3.67;;;1.33;;
29402;SDS011;16382;59.942;30.472;2023-02-11T01:00:02;2.92;;;1.50;;
29402;SDS011;16382;59.942;30.472;2023-02-11T01:02:31;4.90;;;0.90;;
29402;SDS011;16382;59.942;30.472;2023-02-11T01:04:58;5.05;;;1.23;;
29402;SDS011;16382;59.942;30.472;2023-02-11T01:07:25;6.95;;;1.10;;
29402;SDS011;16382;59.942;30.472;2023-02-11T01:09:55;9.25;;;1.40;;
29402;SDS011;16382;59.942;30.472;2023-02-11T01:12:22;10.45;;;2.10;;
29402;SDS011;16382;59.942;30.472;2023-02-11T01:14:50;9.07;;;1.98;;
29402;SDS011;16382;59.942;30.472;2023-02-11T01:17:18;9.10;;;2.33;;
29402;SDS011;16382;59.942;30.472;2023-02-11T01:19:48;9.82;;;2.10;;
29402;SDS011;16382;59.942;30.472;2023-02-11T01:22:15;13.00;;;2.60;;
29402;SDS011;16382;59.942;30.472;2023-02-11T01:24:43;10.77;;;2.88;;
29402;SDS011;16382;59.942;30.472;2023-02-11T01:27:11;10.45;;;2.17;;
29402;SDS011;16382;59.942;30.472;2023-02-11T01:29:38;6.85;;;2.40;;
29402;SDS011;16382;59.942;30.472;2023-02-11T01:32:06;8.73;;;2.67;;
29402;SDS011;16382;59.942;30.472;2023-02-11T01:34:33;15.35;;;2.78;;
29402;SDS011;16382;59.942;30.472;2023-02-11T01:37:00;13.10;;;2.00;;
29402;SDS011;16382;59.942;30.472;2023-02-11T01:39:27;11.02;;;3.20;;
29402;SDS011;16382;59.942;30.472;2023-02-11T01:41:58;10.07;;;2.30;;
29402;SDS011;16382;59.942;30.472;2023-02-11T01:44:27;4.68;;;1.30;;
29402;SDS011;16382;59.942;30.472;2023-02-11T01:46:56;8.40;;;2.20;;
29402;SDS011;16382;59.942;30.472;2023-02-11T01:49:24;7.57;;;2.42;;
29402;SDS011;16382;59.942;30.472;2023-02-11T01:51:55;11.98;;;2.78;;
29402;SDS011;16382;59.942;30.472;2023-02-11T01:54:27;8.52;;;2.22;;
29402;SDS011;16382;59.942;30.472;2023-02-11T01:57:17;11.93;;;2.28;;
29402;SDS011;16382;59.942;30.472;2023-02-11T01:59:53;5.07;;;1.63;;
29402;SDS011;16382;59.942;30.472;2023-02-11T02:02:43;7.53;;;1.83;;
29402;SDS011;16382;59.942;30.472;2023-02-11T02:05:21;6.63;;;1.92;;
29402;SDS011;16382;59.942;30.472;2023-02-11T02:07:59;7.65;;;2.17;;
29402;SDS011;16382;59.942;30.472;2023-02-11T02:10:34;4.95;;;2.15;;
29402;SDS011;16382;59.942;30.472;2023-02-11T02:13:05;5.15;;;2.00;;
29402;SDS011;16382;59.942;30.472;2023-02-11T02:15:34;8.43;;;1.98;;
29402;SDS011;16382;59.942;30.472;2023-02-11T02:18:07;7.88;;;1.88;;
29402;SDS011;16382;59.942;30.472;2023-02-11T02:23:24;7.55;;;2.15;;
29402;SDS011;16382;59.942;30.472;2023-02-11T02:29:21;5.40;;;2.03;;
29402;SDS011;16382;59.942;30.472;2023-02-11T02:32:28;7.25;;;1.88;;
29402;SDS011;16382;59.942;30.472;2023-02-11T02:35:14;5.72;;;1.73;;
29402;SDS011;16382;59.942;30.472;2023-02-11T02:37:54;8.80;;;1.67;;
29402;SDS011;16382;59.942;30.472;2023-02-11T02:40:26;6.35;;;2.72;;
29402;SDS011;16382;59.942;30.472;2023-02-11T02:42:57;5.60;;;1.88;;
29402;SDS011;16382;59.942;30.472;2023-02-11T02:45:25;6.90;;;2.25;;
29402;SDS011;16382;59.942;30.472;2023-02-11T02:47:54;7.97;;;2.15;;
29402;SDS011;16382;59.942;30.472;2023-02-11T02:50:22;7.65;;;1.88;;
29402;SDS011;16382;59.942;30.472;2023-02-11T02:52:56;7.72;;;1.98;;
29402;SDS011;16382;59.942;30.472;2023-02-11T02:55:43;4.75;;;1.50;;
29402;SDS011;16382;59.942;30.472;2023-02-11T02:58:36;7.47;;;1.77;;
29402;SDS011;16382;59.942;30.472;2023-02-11T03:01:34;6.30;;;1.77;;
29402;SDS011;16382;59.942;30.472;2023-02-11T03:04:11;8.82;;;1.85;;
29402;SDS011;16382;59.942;30.472;2023-02-11T03:06:45;5.18;;;1.38;;
29402;SDS011;16382;59.942;30.472;2023-02-11T03:09:20;6.18;;;1.38;;
29402;SDS011;16382;59.942;30.472;2023-02-11T03:11:57;7.60;;;1.30;;
29402;SDS011;16382;59.942;30.472;2023-02-11T03:14:30;9.30;;;1.40;;
29402;SDS011;16382;59.942;30.472;2023-02-11T03:17:00;7.22;;;1.85;;
29402;SDS011;16382;59.942;30.472;2023-02-11T03:19:32;9.30;;;1.90;;
29402;SDS011;16382;59.942;30.472;2023-02-11T03:24:35;5.10;;;1.20;;
29402;SDS011;16382;59.942;30.472;2023-02-11T03:27:08;6.10;;;1.30;;
29402;SDS011;16382;59.942;30.472;2023-02-11T03:29:42;6.88;;;1.50;;
29402;SDS011;16382;59.942;30.472;2023-02-11T03:32:16;8.80;;;1.60;;
29402;SDS011;16382;59.942;30.472;2023-02-11T03:34:51;5.70;;;1.30;;
29402;SDS011;16382;59.942;30.472;2023-02-11T03:37:23;4.28;;;1.35;;
29402;SDS011;16382;59.942;30.472;2023-02-11T03:39:55;8.43;;;1.63;;
29402;SDS011;16382;59.942;30.472;2023-02-11T03:42:30;8.77;;;1.60;;
29402;SDS011;16382;59.942;30.472;2023-02-11T03:45:02;6.13;;;1.40;;
29402;SDS011;16382;59.942;30.472;2023-02-11T03:47:32;5.10;;;1.30;;
29402;SDS011;16382;59.942;30.472;2023-02-11T03:50:06;6.78;;;1.40;;
29402;SDS011;16382;59.942;30.472;2023-02-11T03:52:36;4.40;;;1.35;;
29402;SDS011;16382;59.942;30.472;2023-02-11T03:55:05;3.88;;;0.98;;
29402;SDS011;16382;59.942;30.472;2023-02-11T03:57:35;5.00;;;1.05;;
29402;SDS011;16382;59.942;30.472;2023-02-11T04:00:03;4.60;;;1.42;;
29402;SDS011;16382;59.942;30.472;2023-02-11T04:02:37;5.05;;;1.13;;
29402;SDS011;16382;59.942;30.472;2023-02-11T04:05:07;4.93;;;1.58;;
29402;SDS011;16382;59.942;30.472;2023-02-11T04:07:35;5.75;;;1.73;;
29402;SDS011;16382;59.942;30.472;2023-02-11T04:10:02;8.25;;;1.70;;
29402;SDS011;16382;59.942;30.472;2023-02-11T04:12:30;5.90;;;2.10;;
29402;SDS011;16382;59.942;30.472;2023-02-11T04:14:57;8.88;;;2.88;;
29402;SDS011;16382;59.942;30.472;2023-02-11T04:17:24;5.72;;;1.77;;
29402;SDS011;16382;59.942;30.472;2023-02-11T04:19:51;8.00;;;1.80;;
29402;SDS011;16382;59.942;30.472;2023-02-11T04:22:20;9.75;;;2.45;;
29402;SDS011;16382;59.942;30.472;2023-02-11T04:24:47;5.03;;;1.42;;
29402;SDS011;16382;59.942;30.472;2023-02-11T04:27:14;8.95;;;1.63;;
29402;SDS011;16382;59.942;30.472;2023-02-11T04:29:42;5.95;;;1.80;;
29402;SDS011;16382;59.942;30.472;2023-02-11T04:32:10;11.65;;;2.13;;
29402;SDS011;16382;59.942;30.472;2023-02-11T04:34:37;6.68;;;2.00;;
29402;SDS011;16382;59.942;30.472;2023-02-11T04:37:04;5.10;;;1.95;;
29402;SDS011;16382;59.942;30.472;2023-02-11T04:39:34;5.63;;;2.20;;
29402;SDS011;16382;59.942;30.472;2023-02-11T04:42:01;8.00;;;2.92;;
29402;SDS011;16382;59.942;30.472;2023-02-11T04:44:28;14.93;;;2.92;;
29402;SDS011;16382;59.942;30.472;2023-02-11T04:46:56;9.77;;;2.58;;
29402;SDS011;16382;59.942;30.472;2023-02-11T04:49:25;6.75;;;2.45;;
29402;SDS011;16382;59.942;30.472;2023-02-11T04:51:52;5.53;;;1.77;;
29402;SDS011;16382;59.942;30.472;2023-02-11T04:54:19;7.05;;;1.77;;
29402;SDS011;16382;59.942;30.472;2023-02-11T04:56:48;7.78;;;2.10;;
29402;SDS011;16382;59.942;30.472;2023-02-11T04:59:16;8.05;;;1.50;;
29402;SDS011;16382;59.942;30.472;2023-02-11T05:01:43;12.40;;;2.20;;
29402;SDS011;16382;59.942;30.472;2023-02-11T05:04:10;11.07;;;2.53;;
29402;SDS011;16382;59.942;30.472;2023-02-11T05:06:38;11.68;;;2.53;;
29402;SDS011;16382;59.942;30.472;2023-02-11T05:09:05;7.88;;;1.80;;
29402;SDS011;16382;59.942;30.472;2023-02-11T05:11:33;7.53;;;2.60;;
29402;SDS011;16382;59.942;30.472;2023-02-11T05:14:02;9.27;;;2.53;;
29402;SDS011;16382;59.942;30.472;2023-02-11T05:16:29;10.13;;;2.45;;
29402;SDS011;16382;59.942;30.472;2023-02-11T05:18:56;13.27;;;2.58;;
29402;SDS011;16382;59.942;30.472;2023-02-11T05:21:24;5.53;;;2.00;;
29402;SDS011;16382;59.942;30.472;2023-02-11T05:23:51;6.88;;;2.25;;
29402;SDS011;16382;59.942;30.472;2023-02-11T05:26:18;14.02;;;2.17;;
29402;SDS011;16382;59.942;30.472;2023-02-11T05:28:46;14.32;;;2.17;;
29402;SDS011;16382;59.942;30.472;2023-02-11T05:31:15;10.02;;;2.38;;
29402;SDS011;16382;59.942;30.472;2023-02-11T05:33:43;10.77;;;1.80;;
29402;SDS011;16382;59.942;30.472;2023-02-11T05:36:11;10.07;;;2.20;;
29402;SDS011;16382;59.942;30.472;2023-02-11T05:38:39;7.10;;;2.25;;
29402;SDS011;16382;59.942;30.472;2023-02-11T05:41:07;5.13;;;2.35;;
29402;SDS011;16382;59.942;30.472;2023-02-11T05:43:35;7.53;;;2.10;;
29402;SDS011;16382;59.942;30.472;2023-02-11T05:46:02;7.57;;;1.92;;
29402;SDS011;16382;59.942;30.472;2023-02-11T05:48:31;10.77;;;2.28;;
29402;SDS011;16382;59.942;30.472;2023-02-11T05:50:59;5.10;;;1.92;;
29402;SDS011;16382;59.942;30.472;2023-02-11T05:53:26;7.03;;;2.10;;
29402;SDS011;16382;59.942;30.472;2023-02-11T05:55:54;5.38;;;1.83;;
29402;SDS011;16382;59.942;30.472;2023-02-11T05:58:22;5.20;;;1.42;;
29402;SDS011;16382;59.942;30.472;2023-02-11T06:00:49;9.77;;;2.67;;
29402;SDS011;16382;59.942;30.472;2023-02-11T06:03:16;8.90;;;1.80;;
29402;SDS011;16382;59.942;30.472;2023-02-11T06:05:45;5.30;;;2.03;;
29402;SDS011;16382;59.942;30.472;2023-02-11T06:08:12;5.28;;;1.85;;
29402;SDS011;16382;59.942;30.472;2023-02-11T06:10:40;4.47;;;1.38;;
29402;SDS011;16382;59.942;30.472;2023-02-11T06:13:09;8.88;;;1.48;;
29402;SDS011;16382;59.942;30.472;2023-02-11T06:15:36;11.02;;;2.20;;
29402;SDS011;16382;59.942;30.472;2023-02-11T06:18:04;9.90;;;1.83;;
29402;SDS011;16382;59.942;30.472;2023-02-11T06:20:31;6.18;;;2.08;;
29402;SDS011;16382;59.942;30.472;2023-02-11T06:23:00;6.38;;;1.80;;
29402;SDS011;16382;59.942;30.472;2023-02-11T06:25:27;4.13;;;1.48;;
29402;SDS011;16382;59.942;30.472;2023-02-11T06:27:54;10.57;;;1.95;;
29402;SDS011;16382;59.942;30.472;2023-02-11T06:30:21;10.70;;;2.33;;
29402;SDS011;16382;59.942;30.472;2023-02-11T06:32:49;9.32;;;2.75;;
29402;SDS011;16382;59.942;30.472;2023-02-11T06:35:16;7.43;;;2.17;;
29402;SDS011;16382;59.942;30.472;2023-02-11T06:37:43;7.20;;;2.50;;
29402;SDS011;16382;59.942;30.472;2023-02-11T06:40:12;6.53;;;1.90;;
29402;SDS011;16382;59.942;30.472;2023-02-11T06:42:40;9.43;;;3.35;;
29402;SDS011;16382;59.942;30.472;2023-02-11T06:45:07;5.93;;;2.50;;
29402;SDS011;16382;59.942;30.472;2023-02-11T06:47:35;6.60;;;2.13;;
29402;SDS011;16382;59.942;30.472;2023-02-11T06:50:02;7.85;;;2.45;;
29402;SDS011;16382;59.942;30.472;2023-02-11T06:52:30;7.60;;;2.40;;
29402;SDS011;16382;59.942;30.472;2023-02-11T06:54:57;6.30;;;1.88;;
29402;SDS011;16382;59.942;30.472;2023-02-11T06:57:28;14.82;;;2.85;;
29402;SDS011;16382;59.942;30.472;2023-02-11T07:00:01;9.15;;;2.20;;
29402;SDS011;16382;59.942;30.472;2023-02-11T07:02:29;4.88;;;1.75;;
29402;SDS011;16382;59.942;30.472;2023-02-11T07:04:57;6.53;;;2.47;;
29402;SDS011;16382;59.942;30.472;2023-02-11T07:07:24;8.40;;;2.33;;
29402;SDS011;16382;59.942;30.472;2023-02-11T07:09:52;9.80;;;2.97;;
29402;SDS011;16382;59.942;30.472;2023-02-11T07:12:19;7.15;;;2.70;;
29402;SDS011;16382;59.942;30.472;2023-02-11T07:14:48;17.35;;;2.25;;
29402;SDS011;16382;59.942;30.472;2023-02-11T07:17:15;13.90;;;3.05;;
29402;SDS011;16382;59.942;30.472;2023-02-11T07:19:42;8.55;;;2.97;;
29402;SDS011;16382;59.942;30.472;2023-02-11T07:22:09;6.93;;;2.13;;
29402;SDS011;16382;59.942;30.472;2023-02-11T07:24:37;8.50;;;2.72;;
29402;SDS011;16382;59.942;30.472;2023-02-11T07:27:04;9.85;;;3.15;;
29402;SDS011;16382;59.942;30.472;2023-02-11T07:29:31;14.35;;;3.28;;
29402;SDS011;16382;59.942;30.472;2023-02-11T07:32:00;8.65;;;2.85;;
29402;SDS011;16382;59.942;30.472;2023-02-11T07:34:27;19.33;;;3.00;;
29402;SDS011;16382;59.942;30.472;2023-02-11T07:36:54;9.35;;;2.85;;
29402;SDS011;16382;59.942;30.472;2023-02-11T07:39:21;7.47;;;3.00;;
29402;SDS011;16382;59.942;30.472;2023-02-11T07:41:51;8.27;;;3.90;;
29402;SDS011;16382;59.942;30.472;2023-02-11T07:44:19;10.52;;;3.10;;
29402;SDS011;16382;59.942;30.472;2023-02-11T07:46:46;12.43;;;3.67;;
29402;SDS011;16382;59.942;30.472;2023-02-11T07:49:15;11.77;;;3.92;;
29402;SDS011;16382;59.942;30.472;2023-02-11T07:51:43;11.68;;;4.35;;
29402;SDS011;16382;59.942;30.472;2023-02-11T07:54:10;10.95;;;3.70;;
29402;SDS011;16382;59.942;30.472;2023-02-11T07:56:37;8.48;;;3.72;;
29402;SDS011;16382;59.942;30.472;2023-02-11T07:59:04;14.45;;;3.72;;
29402;SDS011;16382;59.942;30.472;2023-02-11T08:01:31;12.77;;;4.18;;
29402;SDS011;16382;59.942;30.472;2023-02-11T08:03:59;12.35;;;3.72;;
29402;SDS011;16382;59.942;30.472;2023-02-11T08:06:29;9.15;;;4.07;;
29402;SDS011;16382;59.942;30.472;2023-02-11T08:09:02;9.45;;;3.70;;
29402;SDS011;16382;59.942;30.472;2023-02-11T08:11:30;13.00;;;3.90;;
29402;SDS011;16382;59.942;30.472;2023-02-11T08:13:58;12.70;;;4.43;;
29402;SDS011;16382;59.942;30.472;2023-02-11T08:16:26;12.65;;;3.92;;
29402;SDS011;16382;59.942;30.472;2023-02-11T08:18:55;14.98;;;4.35;;
29402;SDS011;16382;59.942;30.472;2023-02-11T08:21:23;8.77;;;3.50;;
29402;SDS011;16382;59.942;30.472;2023-02-11T08:23:52;14.20;;;4.03;;
29402;SDS011;16382;59.942;30.472;2023-02-11T08:26:20;11.85;;;4.53;;
29402;SDS011;16382;59.942;30.472;2023-02-11T08:28:50;11.63;;;4.93;;
29402;SDS011;16382;59.942;30.472;2023-02-11T08:31:20;20.05;;;6.75;;
29402;SDS011;16382;59.942;30.472;2023-02-11T08:33:48;19.10;;;6.82;;
29402;SDS011;16382;59.942;30.472;2023-02-11T08:36:16;17.92;;;6.15;;
29402;SDS011;16382;59.942;30.472;2023-02-11T08:38:46;18.58;;;6.15;;
29402;SDS011;16382;59.942;30.472;2023-02-11T08:41:15;13.18;;;5.53;;
29402;SDS011;16382;59.942;30.472;2023-02-11T08:43:43;16.13;;;6.63;;
29402;SDS011;16382;59.942;30.472;2023-02-11T08:46:12;11.13;;;5.28;;
29402;SDS011;16382;59.942;30.472;2023-02-11T08:48:40;14.80;;;4.50;;
29402;SDS011;16382;59.942;30.472;2023-02-11T08:51:13;9.70;;;4.25;;
29402;SDS011;16382;59.942;30.472;2023-02-11T08:53:42;10.50;;;3.60;;
29402;SDS011;16382;59.942;30.472;2023-02-11T08:56:10;15.57;;;5.10;;
29402;SDS011;16382;59.942;30.472;2023-02-11T08:58:38;13.05;;;5.03;;
29402;SDS011;16382;59.942;30.472;2023-02-11T09:01:09;11.40;;;4.45;;
29402;SDS011;16382;59.942;30.472;2023-02-11T09:03:37;10.27;;;4.50;;
29402;SDS011;16382;59.942;30.472;2023-02-11T09:06:04;10.50;;;5.05;;
29402;SDS011;16382;59.942;30.472;2023-02-11T09:08:34;15.00;;;5.32;;
29402;SDS011;16382;59.942;30.472;2023-02-11T09:11:01;8.88;;;4.90;;
29402;SDS011;16382;59.942;30.472;2023-02-11T09:13:29;12.43;;;4.93;;
29402;SDS011;16382;59.942;30.472;2023-02-11T09:15:58;11.32;;;5.25;;
29402;SDS011;16382;59.942;30.472;2023-02-11T09:18:27;15.27;;;4.32;;
29402;SDS011;16382;59.942;30.472;2023-02-11T09:21:00;13.68;;;5.20;;
29402;SDS011;16382;59.942;30.472;2023-02-11T09:25:55;10.82;;;3.60;;
29402;SDS011;16382;59.942;30.472;2023-02-11T09:28:22;8.27;;;3.35;;
29402;SDS011;16382;59.942;30.472;2023-02-11T09:30:49;7.32;;;2.95;;
29402;SDS011;16382;59.942;30.472;2023-02-11T09:33:17;7.72;;;2.42;;
29402;SDS011;16382;59.942;30.472;2023-02-11T09:35:45;9.05;;;2.78;;
29402;SDS011;16382;59.942;30.472;2023-02-11T09:38:12;10.95;;;3.63;;
29402;SDS011;16382;59.942;30.472;2023-02-11T09:40:40;7.28;;;2.83;;
29402;SDS011;16382;59.942;30.472;2023-02-11T09:43:09;9.75;;;2.85;;
29402;SDS011;16382;59.942;30.472;2023-02-11T09:45:41;9.23;;;3.03;;
29402;SDS011;16382;59.942;30.472;2023-02-11T09:48:09;8.27;;;2.70;;
29402;SDS011;16382;59.942;30.472;2023-02-11T09:50:42;8.00;;;3.58;;
29402;SDS011;16382;59.942;30.472;2023-02-11T09:53:14;5.85;;;3.35;;
29402;SDS011;16382;59.942;30.472;2023-02-11T09:55:48;7.30;;;2.78;;
29402;SDS011;16382;59.942;30.472;2023-02-11T09:58:21;7.97;;;2.92;;
29402;SDS011;16382;59.942;30.472;2023-02-11T10:00:53;9.60;;;2.50;;
29402;SDS011;16382;59.942;30.472;2023-02-11T10:03:41;10.82;;;3.17;;
29402;SDS011;16382;59.942;30.472;2023-02-11T10:06:34;8.60;;;3.47;;
29402;SDS011;16382;59.942;30.472;2023-02-11T10:09:09;8.63;;;3.60;;
29402;SDS011;16382;59.942;30.472;2023-02-11T10:12:00;11.98;;;3.08;;
29402;SDS011;16382;59.942;30.472;2023-02-11T10:14:45;9.15;;;3.63;;
29402;SDS011;16382;59.942;30.472;2023-02-11T10:17:24;9.75;;;3.20;;
29402;SDS011;16382;59.942;30.472;2023-02-11T10:20:02;7.28;;;2.65;;
29402;SDS011;16382;59.942;30.472;2023-02-11T10:22:46;7.00;;;3.88;;
29402;SDS011;16382;59.942;30.472;2023-02-11T10:25:17;11.68;;;3.67;;
29402;SDS011;16382;59.942;30.472;2023-02-11T10:27:48;8.68;;;3.17;;
29402;SDS011;16382;59.942;30.472;2023-02-11T10:30:19;10.10;;;3.25;;
29402;SDS011;16382;59.942;30.472;2023-02-11T10:32:54;13.50;;;3.85;;
29402;SDS011;16382;59.942;30.472;2023-02-11T10:35:26;10.63;;;4.38;;
29402;SDS011;16382;59.942;30.472;2023-02-11T10:37:55;16.92;;;5.43;;
29402;SDS011;16382;59.942;30.472;2023-02-11T10:40:23;10.10;;;3.72;;
29402;SDS011;16382;59.942;30.472;2023-02-11T10:42:52;14.90;;;3.45;;
29402;SDS011;16382;59.942;30.472;2023-02-11T10:45:24;11.02;;;4.75;;
29402;SDS011;16382;59.942;30.472;2023-02-11T10:47:54;10.70;;;4.70;;
29402;SDS011;16382;59.942;30.472;2023-02-11T10:50:25;13.88;;;4.32;;
29402;SDS011;16382;59.942;30.472;2023-02-11T10:53:00;13.18;;;4.57;;
29402;SDS011;16382;59.942;30.472;2023-02-11T10:55:38;8.55;;;4.28;;
29402;SDS011;16382;59.942;30.472;2023-02-11T10:58:20;9.73;;;4.35;;
29402;SDS011;16382;59.942;30.472;2023-02-11T11:00:51;8.48;;;3.72;;
29402;SDS011;16382;59.942;30.472;2023-02-11T11:03:21;8.63;;;4.00;;
29402;SDS011;16382;59.942;30.472;2023-02-11T11:05:50;7.68;;;4.05;;
29402;SDS011;16382;59.942;30.472;2023-02-11T11:08:23;9.27;;;3.60;;
29402;SDS011;16382;59.942;30.472;2023-02-11T11:11:06;9.02;;;3.53;;
29402;SDS011;16382;59.942;30.472;2023-02-11T11:13:36;9.55;;;3.55;;
29402;SDS011;16382;59.942;30.472;2023-02-11T11:16:08;8.90;;;3.63;;
29402;SDS011;16382;59.942;30.472;2023-02-11T11:18:46;9.55;;;4.13;;
29402;SDS011;16382;59.942;30.472;2023-02-11T11:21:16;9.30;;;3.80;;
29402;SDS011;16382;59.942;30.472;2023-02-11T11:23:48;8.25;;;3.45;;
29402;SDS011;16382;59.942;30.472;2023-02-11T11:26:18;7.90;;;3.40;;
29402;SDS011;16382;59.942;30.472;2023-02-11T11:28:51;5.32;;;2.45;;
29402;SDS011;16382;59.942;30.472;2023-02-11T11:31:22;10.88;;;2.85;;
29402;SDS011;16382;59.942;30.472;2023-02-11T11:33:53;10.20;;;3.20;;
29402;SDS011;16382;59.942;30.472;2023-02-11T11:36:23;4.90;;;2.58;;
29402;SDS011;16382;59.942;30.472;2023-02-11T11:39:01;8.05;;;2.28;;
29402;SDS011;16382;59.942;30.472;2023-02-11T11:41:44;7.75;;;2.85;;
29402;SDS011;16382;59.942;30.472;2023-02-11T11:44:20;4.13;;;2.13;;
29402;SDS011;16382;59.942;30.472;2023-02-11T11:46:52;9.55;;;2.40;;
29402;SDS011;16382;59.942;30.472;2023-02-11T11:49:34;10.38;;;4.65;;
29402;SDS011;16382;59.942;30.472;2023-02-11T11:52:09;9.18;;;2.40;;
29402;SDS011;16382;59.942;30.472;2023-02-11T11:54:47;8.75;;;2.75;;
29402;SDS011;16382;59.942;30.472;2023-02-11T11:57:22;11.20;;;3.33;;
29402;SDS011;16382;59.942;30.472;2023-02-11T11:59:53;7.82;;;3.17;;
29402;SDS011;16382;59.942;30.472;2023-02-11T12:02:34;7.95;;;2.67;;
29402;SDS011;16382;59.942;30.472;2023-02-11T12:05:25;4.15;;;2.10;;
29402;SDS011;16382;59.942;30.472;2023-02-11T12:07:59;4.72;;;2.30;;
29402;SDS011;16382;59.942;30.472;2023-02-11T12:10:43;6.97;;;2.55;;
29402;SDS011;16382;59.942;30.472;2023-02-11T12:13:21;6.53;;;2.63;;
29402;SDS011;16382;59.942;30.472;2023-02-11T12:16:01;8.07;;;3.03;;
29402;SDS011;16382;59.942;30.472;2023-02-11T12:18:41;4.80;;;2.30;;
29402;SDS011;16382;59.942;30.472;2023-02-11T12:21:26;5.53;;;2.17;;
29402;SDS011;16382;59.942;30.472;2023-02-11T12:24:04;6.45;;;2.20;;
29402;SDS011;16382;59.942;30.472;2023-02-11T12:26:41;7.38;;;2.40;;
29402;SDS011;16382;59.942;30.472;2023-02-11T12:29:15;4.65;;;2.50;;
29402;SDS011;16382;59.942;30.472;2023-02-11T12:31:52;8.40;;;3.45;;
29402;SDS011;16382;59.942;30.472;2023-02-11T12:34:45;8.98;;;2.42;;
29402;SDS011;16382;59.942;30.472;2023-02-11T12:37:28;10.38;;;2.72;;
29402;SDS011;16382;59.942;30.472;2023-02-11T12:40:08;7.80;;;2.65;;
29402;SDS011;16382;59.942;30.472;2023-02-11T12:42:48;6.43;;;2.28;;
29402;SDS011;16382;59.942;30.472;2023-02-11T12:45:40;6.88;;;2.67;;
29402;SDS011;16382;59.942;30.472;2023-02-11T12:48:26;3.97;;;2.20;;
29402;SDS011;16382;59.942;30.472;2023-02-11T12:51:03;5.87;;;2.67;;
29402;SDS011;16382;59.942;30.472;2023-02-11T12:53:49;11.75;;;3.13;;
29402;SDS011;16382;59.942;30.472;2023-02-11T12:56:33;6.63;;;2.78;;
29402;SDS011;16382;59.942;30.472;2023-02-11T12:59:07;4.57;;;2.50;;
29402;SDS011;16382;59.942;30.472;2023-02-11T13:01:41;4.30;;;2.20;;
29402;SDS011;16382;59.942;30.472;2023-02-11T13:04:10;7.15;;;2.58;;
29402;SDS011;16382;59.942;30.472;2023-02-11T13:06:44;3.28;;;2.25;;
29402;SDS011;16382;59.942;30.472;2023-02-11T13:09:15;4.93;;;2.17;;
29402;SDS011;16382;59.942;30.472;2023-02-11T13:14:21;3.67;;;1.80;;
29402;SDS011;16382;59.942;30.472;2023-02-11T13:16:53;6.57;;;2.40;;
29402;SDS011;16382;59.942;30.472;2023-02-11T13:19:23;5.55;;;2.40;;
29402;SDS011;16382;59.942;30.472;2023-02-11T13:22:00;7.50;;;2.80;;
29402;SDS011;16382;59.942;30.472;2023-02-11T13:24:35;3.35;;;1.73;;
29402;SDS011;16382;59.942;30.472;2023-02-11T13:27:10;5.82;;;1.80;;
29402;SDS011;16382;59.942;30.472;2023-02-11T13:38:40;5.47;;;1.60;;
29402;SDS011;16382;59.942;30.472;2023-02-11T13:41:17;3.15;;;1.48;;
29402;SDS011;16382;59.942;30.472;2023-02-11T13:43:56;6.65;;;2.20;;
29402;SDS011;16382;59.942;30.472;2023-02-11T13:49:18;5.28;;;2.05;;
29402;SDS011;16382;59.942;30.472;2023-02-11T13:51:52;6.15;;;1.70;;
29402;SDS011;16382;59.942;30.472;2023-02-11T13:54:23;7.07;;;1.98;;
29402;SDS011;16382;59.942;30.472;2023-02-11T13:59:54;4.75;;;2.28;;
29402;SDS011;16382;59.942;30.472;2023-02-11T14:02:25;6.35;;;1.95;;
29402;SDS011;16382;59.942;30.472;2023-02-11T14:05:18;5.15;;;1.63;;
29402;SDS011;16382;59.942;30.472;2023-02-11T14:14:20;12.60;;;2.95;;
29402;SDS011;16382;59.942;30.472;2023-02-11T14:19:46;12.20;;;3.80;;
29402;SDS011;16382;59.942;30.472;2023-02-11T14:22:16;9.27;;;3.03;;
29402;SDS011;16382;59.942;30.472;2023-02-11T14:24:51;8.40;;;3.00;;
29402;SDS011;16382;59.942;30.472;2023-02-11T14:27:24;8.27;;;3.60;;
29402;SDS011;16382;59.942;30.472;2023-02-11T14:30:08;11.63;;;3.78;;
29402;SDS011;16382;59.942;30.472;2023-02-11T14:32:49;9.90;;;3.95;;
29402;SDS011;16382;59.942;30.472;2023-02-11T14:35:27;9.20;;;3.80;;
29402;SDS011;16382;59.942;30.472;2023-02-11T14:38:01;11.02;;;3.50;;
29402;SDS011;16382;59.942;30.472;2023-02-11T14:40:39;13.07;;;3.40;;
29402;SDS011;16382;59.942;30.472;2023-02-11T14:43:15;15.82;;;4.35;;
29402;SDS011;16382;59.942;30.472;2023-02-11T14:45:47;10.35;;;3.65;;
29402;SDS011;16382;59.942;30.472;2023-02-11T14:48:17;10.52;;;3.55;;
29402;SDS011;16382;59.942;30.472;2023-02-11T14:50:49;9.95;;;3.63;;
29402;SDS011;16382;59.942;30.472;2023-02-11T14:53:21;8.77;;;3.55;;
29402;SDS011;16382;59.942;30.472;2023-02-11T14:55:55;13.45;;;3.25;;
29402;SDS011;16382;59.942;30.472;2023-02-11T14:58:24;13.20;;;3.90;;
29402;SDS011;16382;59.942;30.472;2023-02-11T15:00:54;8.13;;;3.55;;
29402;SDS011;16382;59.942;30.472;2023-02-11T15:03:26;7.38;;;3.53;;
29402;SDS011;16382;59.942;30.472;2023-02-11T15:06:00;13.80;;;4.88;;
29402;SDS011;16382;59.942;30.472;2023-02-11T15:08:31;10.87;;;4.30;;
29402;SDS011;16382;59.942;30.472;2023-02-11T15:11:06;10.85;;;4.25;;
29402;SDS011;16382;59.942;30.472;2023-02-11T15:13:37;12.75;;;4.03;;
29402;SDS011;16382;59.942;30.472;2023-02-11T15:16:12;10.57;;;4.43;;
29402;SDS011;16382;59.942;30.472;2023-02-11T15:18:44;7.72;;;3.47;;
29402;SDS011;16382;59.942;30.472;2023-02-11T15:21:19;10.05;;;4.18;;
29402;SDS011;16382;59.942;30.472;2023-02-11T15:23:55;12.52;;;3.83;;
29402;SDS011;16382;59.942;30.472;2023-02-11T15:26:25;12.52;;;4.10;;
29402;SDS011;16382;59.942;30.472;2023-02-11T15:28:52;13.75;;;3.72;;
29402;SDS011;16382;59.942;30.472;2023-02-11T15:31:21;9.23;;;3.65;;
29402;SDS011;16382;59.942;30.472;2023-02-11T15:33:49;12.10;;;3.85;;